sensor_id;sensor_type;location;lat;lon;timestamp;P1;durP1;ratioP1;P2;durP2;ratioP2
17310;SDS011;8773;43.300;0.394;2023-05-14T00:00:57;5.20;;;4.13;;
17310;SDS011;8773;43.300;0.394;2023-05-14T00:03:25;4.60;;;3.60;;
17310;SDS011;8773;43.300;0.394;2023-05-14T00:05:53;3.50;;;3.30;;
17310;SDS011;8773;43.300;0.394;2023-05-14T00:08:20;3.70;;;3.47;;
17310;SDS011;8773;43.300;0.394;2023-05-14T00:10:47;3.77;;;3.47;;
17310;SDS011;8773;43.300;0.394;2023-05-14T00:13:14;4.03;;;3.73;;
17310;SDS011;8773;43.300;0.394;2023-05-14T00:15:43;4.00;;;3.80;;
17310;SDS011;8773;43.300;0.394;2023-05-14T00:18:11;4.10;;;3.80;;
17310;SDS011;8773;43.300;0.394;2023-05-14T00:20:39;4.13;;;3.93;;
17310;SDS011;8773;43.300;0.394;2023-05-14T00:23:06;4.43;;;4.13;;
17310;SDS011;8773;43.300;0.394;2023-05-14T00:25:34;4.47;;;4.17;;
17310;SDS011;8773;43.300;0.394;2023-05-14T00:28:02;4.50;;;4.23;;
17310;SDS011;8773;43.300;0.394;2023-05-14T00:30:29;4.57;;;4.17;;
17310;SDS011;8773;43.300;0.394;2023-05-14T00:32:58;6.97;;;4.13;;
17310;SDS011;8773;43.300;0.394;2023-05-14T00:35:26;4.70;;;4.30;;
17310;SDS011;8773;43.300;0.394;2023-05-14T00:37:53;4.63;;;4.27;;
17310;SDS011;8773;43.300;0.394;2023-05-14T00:40:21;4.07;;;3.83;;
17310;SDS011;8773;43.300;0.394;2023-05-14T00:42:51;4.03;;;3.83;;
17310;SDS011;8773;43.300;0.394;2023-05-14T00:45:19;4.60;;;4.30;;
17310;SDS011;8773;43.300;0.394;2023-05-14T00:47:46;4.43;;;4.13;;
17310;SDS011;8773;43.300;0.394;2023-05-14T00:50:15;4.10;;;3.80;;
17310;SDS011;8773;43.300;0.394;2023-05-14T00:52:44;4.00;;;3.80;;
17310;SDS011;8773;43.300;0.394;2023-05-14T00:55:12;4.13;;;3.87;;
17310;SDS011;8773;43.300;0.394;2023-05-14T00:57:41;4.07;;;3.87;;
17310;SDS011;8773;43.300;0.394;2023-05-14T01:00:09;5.00;;;4.70;;
17310;SDS011;8773;43.300;0.394;2023-05-14T01:02:36;4.20;;;3.93;;
17310;SDS011;8773;43.300;0.394;2023-05-14T01:05:04;4.10;;;3.90;;
17310;SDS011;8773;43.300;0.394;2023-05-14T01:07:38;4.27;;;3.97;;
17310;SDS011;8773;43.300;0.394;2023-05-14T01:10:16;4.00;;;3.70;;
17310;SDS011;8773;43.300;0.394;2023-05-14T01:12:54;4.40;;;4.20;;
17310;SDS011;8773;43.300;0.394;2023-05-14T01:15:29;3.80;;;3.60;;
17310;SDS011;8773;43.300;0.394;2023-05-14T01:18:00;3.83;;;3.63;;
17310;SDS011;8773;43.300;0.394;2023-05-14T01:20:30;4.40;;;4.10;;
17310;SDS011;8773;43.300;0.394;2023-05-14T01:22:59;4.30;;;4.10;;
17310;SDS011;8773;43.300;0.394;2023-05-14T01:25:27;4.57;;;4.27;;
17310;SDS011;8773;43.300;0.394;2023-05-14T01:27:57;5.07;;;4.73;;
17310;SDS011;8773;43.300;0.394;2023-05-14T01:30:30;4.93;;;4.63;;
17310;SDS011;8773;43.300;0.394;2023-05-14T01:33:02;4.53;;;4.23;;
17310;SDS011;8773;43.300;0.394;2023-05-14T01:35:32;5.37;;;4.87;;
17310;SDS011;8773;43.300;0.394;2023-05-14T01:38:02;4.53;;;4.23;;
17310;SDS011;8773;43.300;0.394;2023-05-14T01:40:32;5.33;;;5.10;;
17310;SDS011;8773;43.300;0.394;2023-05-14T01:43:02;5.00;;;4.70;;
17310;SDS011;8773;43.300;0.394;2023-05-14T01:45:30;4.70;;;4.40;;
17310;SDS011;8773;43.300;0.394;2023-05-14T01:48:01;4.97;;;4.67;;
17310;SDS011;8773;43.300;0.394;2023-05-14T01:50:28;5.50;;;5.20;;
17310;SDS011;8773;43.300;0.394;2023-05-14T01:52:56;5.90;;;5.50;;
17310;SDS011;8773;43.300;0.394;2023-05-14T01:55:25;5.47;;;5.10;;
17310;SDS011;8773;43.300;0.394;2023-05-14T01:57:52;5.67;;;5.23;;
17310;SDS011;8773;43.300;0.394;2023-05-14T02:00:21;5.83;;;5.50;;
17310;SDS011;8773;43.300;0.394;2023-05-14T02:02:50;6.57;;;6.13;;
17310;SDS011;8773;43.300;0.394;2023-05-14T02:05:18;6.67;;;6.17;;
17310;SDS011;8773;43.300;0.394;2023-05-14T02:07:45;7.10;;;6.60;;
17310;SDS011;8773;43.300;0.394;2023-05-14T02:10:13;6.57;;;6.07;;
17310;SDS011;8773;43.300;0.394;2023-05-14T02:12:41;6.43;;;6.13;;
17310;SDS011;8773;43.300;0.394;2023-05-14T02:15:09;6.03;;;5.73;;
17310;SDS011;8773;43.300;0.394;2023-05-14T02:17:36;6.20;;;5.90;;
17310;SDS011;8773;43.300;0.394;2023-05-14T02:20:05;6.13;;;5.80;;
17310;SDS011;8773;43.300;0.394;2023-05-14T02:22:33;5.57;;;5.27;;
17310;SDS011;8773;43.300;0.394;2023-05-14T02:25:00;6.67;;;6.20;;
17310;SDS011;8773;43.300;0.394;2023-05-14T02:27:28;6.13;;;5.80;;
17310;SDS011;8773;43.300;0.394;2023-05-14T02:29:56;6.27;;;5.87;;
17310;SDS011;8773;43.300;0.394;2023-05-14T02:32:24;6.03;;;5.60;;
17310;SDS011;8773;43.300;0.394;2023-05-14T02:34:51;6.43;;;6.00;;
17310;SDS011;8773;43.300;0.394;2023-05-14T02:37:19;5.63;;;5.23;;
17310;SDS011;8773;43.300;0.394;2023-05-14T02:39:46;6.20;;;5.70;;
17310;SDS011;8773;43.300;0.394;2023-05-14T02:42:13;5.70;;;5.23;;
17310;SDS011;8773;43.300;0.394;2023-05-14T02:44:40;5.80;;;5.50;;
17310;SDS011;8773;43.300;0.394;2023-05-14T02:47:09;6.00;;;5.60;;
17310;SDS011;8773;43.300;0.394;2023-05-14T02:49:37;5.87;;;5.53;;
17310;SDS011;8773;43.300;0.394;2023-05-14T02:52:04;5.97;;;5.57;;
17310;SDS011;8773;43.300;0.394;2023-05-14T02:54:32;6.60;;;6.00;;
17310;SDS011;8773;43.300;0.394;2023-05-14T02:56:59;5.97;;;5.57;;
17310;SDS011;8773;43.300;0.394;2023-05-14T02:59:27;5.97;;;5.57;;
17310;SDS011;8773;43.300;0.394;2023-05-14T03:01:54;6.77;;;6.27;;
17310;SDS011;8773;43.300;0.394;2023-05-14T03:04:24;5.87;;;5.50;;
17310;SDS011;8773;43.300;0.394;2023-05-14T03:06:51;6.37;;;5.87;;
17310;SDS011;8773;43.300;0.394;2023-05-14T03:09:18;6.07;;;5.77;;
17310;SDS011;8773;43.300;0.394;2023-05-14T03:11:45;6.03;;;5.70;;
17310;SDS011;8773;43.300;0.394;2023-05-14T03:14:13;6.50;;;6.00;;
17310;SDS011;8773;43.300;0.394;2023-05-14T03:16:40;6.03;;;5.43;;
17310;SDS011;8773;43.300;0.394;2023-05-14T03:19:08;6.63;;;6.03;;
17310;SDS011;8773;43.300;0.394;2023-05-14T03:21:37;6.83;;;6.33;;
17310;SDS011;8773;43.300;0.394;2023-05-14T03:24:05;6.07;;;5.67;;
17310;SDS011;8773;43.300;0.394;2023-05-14T03:26:32;5.90;;;5.47;;
17310;SDS011;8773;43.300;0.394;2023-05-14T03:29:00;5.53;;;5.23;;
17310;SDS011;8773;43.300;0.394;2023-05-14T03:31:28;5.73;;;5.33;;
17310;SDS011;8773;43.300;0.394;2023-05-14T03:33:56;6.03;;;5.60;;
17310;SDS011;8773;43.300;0.394;2023-05-14T03:36:23;6.03;;;5.57;;
17310;SDS011;8773;43.300;0.394;2023-05-14T03:38:52;6.20;;;5.77;;
17310;SDS011;8773;43.300;0.394;2023-05-14T03:41:19;6.43;;;5.93;;
17310;SDS011;8773;43.300;0.394;2023-05-14T03:43:46;5.40;;;5.10;;
17310;SDS011;8773;43.300;0.394;2023-05-14T03:46:14;6.03;;;5.57;;
17310;SDS011;8773;43.300;0.394;2023-05-14T03:48:41;5.30;;;5.00;;
17310;SDS011;8773;43.300;0.394;2023-05-14T03:51:09;5.60;;;5.20;;
17310;SDS011;8773;43.300;0.394;2023-05-14T03:53:36;5.20;;;4.90;;
17310;SDS011;8773;43.300;0.394;2023-05-14T03:56:05;5.33;;;5.03;;
17310;SDS011;8773;43.300;0.394;2023-05-14T03:58:32;5.80;;;5.30;;
17310;SDS011;8773;43.300;0.394;2023-05-14T04:01:00;4.77;;;4.57;;
17310;SDS011;8773;43.300;0.394;2023-05-14T04:03:27;4.30;;;4.03;;
17310;SDS011;8773;43.300;0.394;2023-05-14T04:05:55;5.23;;;4.83;;
17310;SDS011;8773;43.300;0.394;2023-05-14T04:08:22;4.87;;;4.63;;
17310;SDS011;8773;43.300;0.394;2023-05-14T04:10:49;5.10;;;4.70;;
17310;SDS011;8773;43.300;0.394;2023-05-14T04:13:18;4.93;;;4.63;;
17310;SDS011;8773;43.300;0.394;2023-05-14T04:15:46;4.27;;;4.07;;
17310;SDS011;8773;43.300;0.394;2023-05-14T04:18:13;4.10;;;3.90;;
17310;SDS011;8773;43.300;0.394;2023-05-14T04:20:40;4.80;;;4.50;;
17310;SDS011;8773;43.300;0.394;2023-05-14T04:23:08;4.40;;;4.20;;
17310;SDS011;8773;43.300;0.394;2023-05-14T04:25:35;4.00;;;3.80;;
17310;SDS011;8773;43.300;0.394;2023-05-14T04:28:03;4.60;;;4.40;;
17310;SDS011;8773;43.300;0.394;2023-05-14T04:30:32;4.30;;;4.10;;
17310;SDS011;8773;43.300;0.394;2023-05-14T04:32:59;4.70;;;4.40;;
17310;SDS011;8773;43.300;0.394;2023-05-14T04:35:27;4.23;;;4.03;;
17310;SDS011;8773;43.300;0.394;2023-05-14T04:37:54;4.20;;;3.93;;
17310;SDS011;8773;43.300;0.394;2023-05-14T04:40:22;4.30;;;4.10;;
17310;SDS011;8773;43.300;0.394;2023-05-14T04:42:50;4.60;;;4.30;;
17310;SDS011;8773;43.300;0.394;2023-05-14T04:45:17;4.13;;;3.93;;
17310;SDS011;8773;43.300;0.394;2023-05-14T04:47:46;4.70;;;4.40;;
17310;SDS011;8773;43.300;0.394;2023-05-14T04:50:13;4.17;;;3.97;;
17310;SDS011;8773;43.300;0.394;2023-05-14T04:52:41;4.10;;;3.90;;
17310;SDS011;8773;43.300;0.394;2023-05-14T04:55:08;3.73;;;3.43;;
17310;SDS011;8773;43.300;0.394;2023-05-14T04:57:36;4.20;;;3.90;;
17310;SDS011;8773;43.300;0.394;2023-05-14T05:00:04;4.27;;;4.07;;
17310;SDS011;8773;43.300;0.394;2023-05-14T05:02:32;4.43;;;4.13;;
17310;SDS011;8773;43.300;0.394;2023-05-14T05:05:00;4.00;;;3.80;;
17310;SDS011;8773;43.300;0.394;2023-05-14T05:07:28;3.90;;;3.70;;
17310;SDS011;8773;43.300;0.394;2023-05-14T05:09:56;4.40;;;4.07;;
17310;SDS011;8773;43.300;0.394;2023-05-14T05:12:23;4.43;;;4.13;;
17310;SDS011;8773;43.300;0.394;2023-05-14T05:14:50;4.90;;;4.50;;
17310;SDS011;8773;43.300;0.394;2023-05-14T05:17:18;4.80;;;4.50;;
17310;SDS011;8773;43.300;0.394;2023-05-14T05:19:45;5.07;;;4.70;;
17310;SDS011;8773;43.300;0.394;2023-05-14T05:22:14;5.10;;;4.80;;
17310;SDS011;8773;43.300;0.394;2023-05-14T05:24:42;5.07;;;4.77;;
17310;SDS011;8773;43.300;0.394;2023-05-14T05:27:09;5.50;;;5.10;;
17310;SDS011;8773;43.300;0.394;2023-05-14T05:29:36;5.17;;;4.73;;
17310;SDS011;8773;43.300;0.394;2023-05-14T05:32:04;5.47;;;5.07;;
17310;SDS011;8773;43.300;0.394;2023-05-14T05:34:32;5.43;;;5.03;;
17310;SDS011;8773;43.300;0.394;2023-05-14T05:37:00;5.57;;;5.27;;
17310;SDS011;8773;43.300;0.394;2023-05-14T05:39:29;5.67;;;5.27;;
17310;SDS011;8773;43.300;0.394;2023-05-14T05:41:56;5.23;;;4.97;;
17310;SDS011;8773;43.300;0.394;2023-05-14T05:44:24;5.80;;;5.37;;
17310;SDS011;8773;43.300;0.394;2023-05-14T05:46:51;5.50;;;5.10;;
17310;SDS011;8773;43.300;0.394;2023-05-14T05:49:18;5.60;;;5.30;;
17310;SDS011;8773;43.300;0.394;2023-05-14T05:51:46;5.57;;;5.27;;
17310;SDS011;8773;43.300;0.394;2023-05-14T05:54:13;5.30;;;5.00;;
17310;SDS011;8773;43.300;0.394;2023-05-14T05:56:42;5.43;;;5.13;;
17310;SDS011;8773;43.300;0.394;2023-05-14T05:59:09;5.07;;;4.67;;
17310;SDS011;8773;43.300;0.394;2023-05-14T06:01:36;5.43;;;5.13;;
17310;SDS011;8773;43.300;0.394;2023-05-14T06:04:04;5.90;;;5.60;;
17310;SDS011;8773;43.300;0.394;2023-05-14T06:06:31;5.67;;;5.27;;
17310;SDS011;8773;43.300;0.394;2023-05-14T06:08:59;5.00;;;4.70;;
17310;SDS011;8773;43.300;0.394;2023-05-14T06:11:26;5.33;;;5.03;;
17310;SDS011;8773;43.300;0.394;2023-05-14T06:13:55;5.80;;;5.40;;
17310;SDS011;8773;43.300;0.394;2023-05-14T06:16:22;5.83;;;5.53;;
17310;SDS011;8773;43.300;0.394;2023-05-14T06:18:50;6.17;;;5.73;;
17310;SDS011;8773;43.300;0.394;2023-05-14T06:21:17;6.10;;;5.70;;
17310;SDS011;8773;43.300;0.394;2023-05-14T06:23:45;5.73;;;5.43;;
17310;SDS011;8773;43.300;0.394;2023-05-14T06:26:12;10.50;;;9.67;;
17310;SDS011;8773;43.300;0.394;2023-05-14T06:28:39;11.70;;;11.00;;
17310;SDS011;8773;43.300;0.394;2023-05-14T06:31:08;8.03;;;7.63;;
17310;SDS011;8773;43.300;0.394;2023-05-14T06:33:35;7.40;;;6.97;;
17310;SDS011;8773;43.300;0.394;2023-05-14T06:36:03;8.40;;;7.63;;
17310;SDS011;8773;43.300;0.394;2023-05-14T06:38:32;7.17;;;6.43;;
17310;SDS011;8773;43.300;0.394;2023-05-14T06:40:59;7.00;;;6.30;;
17310;SDS011;8773;43.300;0.394;2023-05-14T06:43:26;7.37;;;6.87;;
17310;SDS011;8773;43.300;0.394;2023-05-14T06:45:54;6.73;;;6.23;;
17310;SDS011;8773;43.300;0.394;2023-05-14T06:48:22;6.37;;;5.93;;
17310;SDS011;8773;43.300;0.394;2023-05-14T06:50:50;6.40;;;5.90;;
17310;SDS011;8773;43.300;0.394;2023-05-14T06:53:17;6.80;;;6.30;;
17310;SDS011;8773;43.300;0.394;2023-05-14T06:55:45;7.10;;;6.60;;
17310;SDS011;8773;43.300;0.394;2023-05-14T06:58:13;7.10;;;6.70;;
17310;SDS011;8773;43.300;0.394;2023-05-14T07:00:41;7.43;;;6.93;;
17310;SDS011;8773;43.300;0.394;2023-05-14T07:03:08;7.60;;;7.10;;
17310;SDS011;8773;43.300;0.394;2023-05-14T07:05:37;6.60;;;6.20;;
17310;SDS011;8773;43.300;0.394;2023-05-14T07:08:04;6.87;;;6.37;;
17310;SDS011;8773;43.300;0.394;2023-05-14T07:10:32;8.33;;;7.67;;
17310;SDS011;8773;43.300;0.394;2023-05-14T07:12:59;6.90;;;6.30;;
17310;SDS011;8773;43.300;0.394;2023-05-14T07:15:26;7.47;;;7.07;;
17310;SDS011;8773;43.300;0.394;2023-05-14T07:17:54;6.10;;;5.60;;
17310;SDS011;8773;43.300;0.394;2023-05-14T07:20:21;5.83;;;5.53;;
17310;SDS011;8773;43.300;0.394;2023-05-14T07:22:51;6.47;;;5.97;;
17310;SDS011;8773;43.300;0.394;2023-05-14T07:25:18;6.83;;;6.33;;
17310;SDS011;8773;43.300;0.394;2023-05-14T07:27:46;6.20;;;5.90;;
17310;SDS011;8773;43.300;0.394;2023-05-14T07:30:13;5.23;;;4.93;;
17310;SDS011;8773;43.300;0.394;2023-05-14T07:32:41;5.57;;;5.27;;
17310;SDS011;8773;43.300;0.394;2023-05-14T07:35:09;6.60;;;6.20;;
17310;SDS011;8773;43.300;0.394;2023-05-14T07:37:36;6.57;;;6.10;;
17310;SDS011;8773;43.300;0.394;2023-05-14T07:40:06;6.80;;;6.30;;
17310;SDS011;8773;43.300;0.394;2023-05-14T07:42:34;6.57;;;6.17;;
17310;SDS011;8773;43.300;0.394;2023-05-14T07:45:03;6.23;;;5.93;;
17310;SDS011;8773;43.300;0.394;2023-05-14T07:47:31;5.17;;;4.87;;
17310;SDS011;8773;43.300;0.394;2023-05-14T07:49:59;5.07;;;4.83;;
17310;SDS011;8773;43.300;0.394;2023-05-14T07:52:26;5.30;;;4.90;;
17310;SDS011;8773;43.300;0.394;2023-05-14T07:54:54;4.63;;;4.33;;
17310;SDS011;8773;43.300;0.394;2023-05-14T07:57:22;4.90;;;4.60;;
17310;SDS011;8773;43.300;0.394;2023-05-14T07:59:50;4.90;;;4.60;;
17310;SDS011;8773;43.300;0.394;2023-05-14T08:02:17;4.70;;;4.40;;
17310;SDS011;8773;43.300;0.394;2023-05-14T08:04:44;5.30;;;4.90;;
17310;SDS011;8773;43.300;0.394;2023-05-14T08:07:12;4.90;;;4.60;;
17310;SDS011;8773;43.300;0.394;2023-05-14T08:09:39;4.17;;;3.97;;
17310;SDS011;8773;43.300;0.394;2023-05-14T08:12:06;4.07;;;3.87;;
17310;SDS011;8773;43.300;0.394;2023-05-14T08:14:35;4.70;;;4.30;;
17310;SDS011;8773;43.300;0.394;2023-05-14T08:17:03;4.13;;;3.83;;
17310;SDS011;8773;43.300;0.394;2023-05-14T08:19:31;4.00;;;3.70;;
17310;SDS011;8773;43.300;0.394;2023-05-14T08:21:58;3.70;;;3.50;;
17310;SDS011;8773;43.300;0.394;2023-05-14T08:24:25;3.40;;;3.20;;
17310;SDS011;8773;43.300;0.394;2023-05-14T08:26:53;3.67;;;3.40;;
17310;SDS011;8773;43.300;0.394;2023-05-14T08:29:20;3.70;;;3.50;;
17310;SDS011;8773;43.300;0.394;2023-05-14T08:31:49;3.40;;;3.30;;
17310;SDS011;8773;43.300;0.394;2023-05-14T08:34:16;4.00;;;3.70;;
17310;SDS011;8773;43.300;0.394;2023-05-14T08:36:44;3.40;;;3.27;;
17310;SDS011;8773;43.300;0.394;2023-05-14T08:39:11;3.73;;;3.53;;
17310;SDS011;8773;43.300;0.394;2023-05-14T08:41:39;4.30;;;4.10;;
17310;SDS011;8773;43.300;0.394;2023-05-14T08:44:08;3.90;;;3.70;;
17310;SDS011;8773;43.300;0.394;2023-05-14T08:46:39;3.43;;;3.23;;
17310;SDS011;8773;43.300;0.394;2023-05-14T08:49:09;3.40;;;3.30;;
17310;SDS011;8773;43.300;0.394;2023-05-14T08:51:42;4.13;;;3.93;;
17310;SDS011;8773;43.300;0.394;2023-05-14T08:54:10;4.13;;;3.93;;
17310;SDS011;8773;43.300;0.394;2023-05-14T08:56:39;4.13;;;3.83;;
17310;SDS011;8773;43.300;0.394;2023-05-14T08:59:09;3.93;;;3.73;;
17310;SDS011;8773;43.300;0.394;2023-05-14T09:01:37;3.90;;;3.70;;
17310;SDS011;8773;43.300;0.394;2023-05-14T09:04:05;3.50;;;3.40;;
17310;SDS011;8773;43.300;0.394;2023-05-14T09:06:34;3.90;;;3.80;;
17310;SDS011;8773;43.300;0.394;2023-05-14T09:09:02;3.93;;;3.73;;
17310;SDS011;8773;43.300;0.394;2023-05-14T09:11:30;3.90;;;3.70;;
17310;SDS011;8773;43.300;0.394;2023-05-14T09:13:57;3.80;;;3.60;;
17310;SDS011;8773;43.300;0.394;2023-05-14T09:16:24;4.50;;;3.70;;
17310;SDS011;8773;43.300;0.394;2023-05-14T09:18:53;4.23;;;3.97;;
17310;SDS011;8773;43.300;0.394;2023-05-14T09:21:20;4.17;;;3.83;;
17310;SDS011;8773;43.300;0.394;2023-05-14T09:23:51;4.17;;;3.97;;
17310;SDS011;8773;43.300;0.394;2023-05-14T09:26:21;4.87;;;4.57;;
17310;SDS011;8773;43.300;0.394;2023-05-14T09:28:52;4.73;;;4.43;;
17310;SDS011;8773;43.300;0.394;2023-05-14T09:31:19;4.00;;;3.80;;
17310;SDS011;8773;43.300;0.394;2023-05-14T09:33:48;4.37;;;4.07;;
17310;SDS011;8773;43.300;0.394;2023-05-14T09:36:16;4.40;;;4.10;;
17310;SDS011;8773;43.300;0.394;2023-05-14T09:38:44;4.73;;;4.50;;
17310;SDS011;8773;43.300;0.394;2023-05-14T09:41:12;5.10;;;4.60;;
17310;SDS011;8773;43.300;0.394;2023-05-14T09:43:40;4.70;;;4.40;;
17310;SDS011;8773;43.300;0.394;2023-05-14T09:46:07;4.30;;;4.10;;
17310;SDS011;8773;43.300;0.394;2023-05-14T09:48:35;4.80;;;4.40;;
17310;SDS011;8773;43.300;0.394;2023-05-14T09:51:02;4.23;;;3.93;;
17310;SDS011;8773;43.300;0.394;2023-05-14T09:53:31;4.90;;;4.60;;
17310;SDS011;8773;43.300;0.394;2023-05-14T09:55:59;4.33;;;4.03;;
17310;SDS011;8773;43.300;0.394;2023-05-14T09:58:27;4.60;;;4.30;;
17310;SDS011;8773;43.300;0.394;2023-05-14T10:00:56;4.07;;;3.87;;
17310;SDS011;8773;43.300;0.394;2023-05-14T10:03:24;4.32;;;4.13;;
17310;SDS011;8773;43.300;0.394;2023-05-14T10:05:52;4.03;;;3.72;;
17310;SDS011;8773;43.300;0.394;2023-05-14T10:08:23;4.20;;;4.00;;
17310;SDS011;8773;43.300;0.394;2023-05-14T10:10:53;4.13;;;3.92;;
17310;SDS011;8773;43.300;0.394;2023-05-14T10:13:22;4.05;;;3.83;;
17310;SDS011;8773;43.300;0.394;2023-05-14T10:15:54;3.85;;;3.65;;
17310;SDS011;8773;43.300;0.394;2023-05-14T10:18:25;4.00;;;3.70;;
17310;SDS011;8773;43.300;0.394;2023-05-14T10:20:59;3.97;;;3.78;;
17310;SDS011;8773;43.300;0.394;2023-05-14T10:23:30;4.55;;;4.15;;
17310;SDS011;8773;43.300;0.394;2023-05-14T10:25:58;4.20;;;3.90;;
17310;SDS011;8773;43.300;0.394;2023-05-14T10:28:27;3.63;;;3.45;;
17310;SDS011;8773;43.300;0.394;2023-05-14T10:30:59;4.43;;;4.22;;
17310;SDS011;8773;43.300;0.394;2023-05-14T10:33:26;5.03;;;4.32;;
17310;SDS011;8773;43.300;0.394;2023-05-14T10:35:55;3.47;;;3.38;;
17310;SDS011;8773;43.300;0.394;2023-05-14T10:38:25;3.92;;;3.72;;
17310;SDS011;8773;43.300;0.394;2023-05-14T10:40:54;4.05;;;3.85;;
17310;SDS011;8773;43.300;0.394;2023-05-14T10:43:23;3.72;;;3.53;;
17310;SDS011;8773;43.300;0.394;2023-05-14T10:45:52;3.65;;;3.45;;
17310;SDS011;8773;43.300;0.394;2023-05-14T10:48:21;3.45;;;3.33;;
17310;SDS011;8773;43.300;0.394;2023-05-14T10:50:48;3.53;;;3.42;;
17310;SDS011;8773;43.300;0.394;2023-05-14T10:53:16;3.67;;;3.47;;
17310;SDS011;8773;43.300;0.394;2023-05-14T10:55:44;3.78;;;3.58;;
17310;SDS011;8773;43.300;0.394;2023-05-14T10:58:12;4.00;;;3.80;;
17310;SDS011;8773;43.300;0.394;2023-05-14T11:00:40;4.05;;;3.85;;
17310;SDS011;8773;43.300;0.394;2023-05-14T11:03:08;4.18;;;3.90;;
17310;SDS011;8773;43.300;0.394;2023-05-14T11:05:37;4.80;;;4.40;;
17310;SDS011;8773;43.300;0.394;2023-05-14T11:08:07;4.95;;;4.57;;
17310;SDS011;8773;43.300;0.394;2023-05-14T11:10:34;4.90;;;4.65;;
17310;SDS011;8773;43.300;0.394;2023-05-14T11:13:02;4.65;;;4.38;;
17310;SDS011;8773;43.300;0.394;2023-05-14T11:15:29;5.13;;;4.82;;
17310;SDS011;8773;43.300;0.394;2023-05-14T11:17:57;5.00;;;4.70;;
17310;SDS011;8773;43.300;0.394;2023-05-14T11:20:24;4.63;;;4.43;;
17310;SDS011;8773;43.300;0.394;2023-05-14T11:22:53;4.47;;;4.25;;
17310;SDS011;8773;43.300;0.394;2023-05-14T11:25:21;4.72;;;4.18;;
17310;SDS011;8773;43.300;0.394;2023-05-14T11:27:48;4.63;;;4.32;;
17310;SDS011;8773;43.300;0.394;2023-05-14T11:30:17;4.38;;;4.13;;
17310;SDS011;8773;43.300;0.394;2023-05-14T11:32:45;4.43;;;4.13;;
17310;SDS011;8773;43.300;0.394;2023-05-14T11:35:14;4.65;;;4.45;;
17310;SDS011;8773;43.300;0.394;2023-05-14T11:37:42;4.57;;;4.32;;
17310;SDS011;8773;43.300;0.394;2023-05-14T11:40:14;4.38;;;3.97;;
17310;SDS011;8773;43.300;0.394;2023-05-14T11:42:42;4.50;;;4.30;;
17310;SDS011;8773;43.300;0.394;2023-05-14T11:45:09;4.32;;;4.13;;
17310;SDS011;8773;43.300;0.394;2023-05-14T11:47:38;4.50;;;4.20;;
17310;SDS011;8773;43.300;0.394;2023-05-14T11:50:06;4.03;;;3.83;;
17310;SDS011;8773;43.300;0.394;2023-05-14T11:52:36;4.25;;;4.05;;
17310;SDS011;8773;43.300;0.394;2023-05-14T11:55:06;4.10;;;3.80;;
17310;SDS011;8773;43.300;0.394;2023-05-14T11:57:38;4.63;;;4.38;;
17310;SDS011;8773;43.300;0.394;2023-05-14T12:00:06;4.15;;;3.92;;
17310;SDS011;8773;43.300;0.394;2023-05-14T12:02:35;4.32;;;4.13;;
17310;SDS011;8773;43.300;0.394;2023-05-14T12:05:04;4.00;;;3.80;;
17310;SDS011;8773;43.300;0.394;2023-05-14T12:07:32;5.05;;;4.75;;
17310;SDS011;8773;43.300;0.394;2023-05-14T12:10:00;4.97;;;4.68;;
17310;SDS011;8773;43.300;0.394;2023-05-14T12:12:33;5.03;;;4.75;;
17310;SDS011;8773;43.300;0.394;2023-05-14T12:15:09;4.70;;;4.50;;
17310;SDS011;8773;43.300;0.394;2023-05-14T12:17:37;4.90;;;4.65;;
17310;SDS011;8773;43.300;0.394;2023-05-14T12:20:07;4.72;;;4.43;;
17310;SDS011;8773;43.300;0.394;2023-05-14T12:22:35;5.07;;;4.68;;
17310;SDS011;8773;43.300;0.394;2023-05-14T12:25:03;5.50;;;5.20;;
17310;SDS011;8773;43.300;0.394;2023-05-14T12:27:36;5.35;;;5.05;;
17310;SDS011;8773;43.300;0.394;2023-05-14T12:30:05;5.03;;;4.75;;
17310;SDS011;8773;43.300;0.394;2023-05-14T12:32:36;5.40;;;5.00;;
17310;SDS011;8773;43.300;0.394;2023-05-14T12:35:04;5.05;;;4.75;;
17310;SDS011;8773;43.300;0.394;2023-05-14T12:37:32;5.30;;;4.90;;
17310;SDS011;8773;43.300;0.394;2023-05-14T12:39:59;5.00;;;4.70;;
17310;SDS011;8773;43.300;0.394;2023-05-14T12:42:27;4.07;;;3.88;;
17310;SDS011;8773;43.300;0.394;2023-05-14T12:44:54;4.05;;;3.85;;
17310;SDS011;8773;43.300;0.394;2023-05-14T12:47:23;4.45;;;4.25;;
17310;SDS011;8773;43.300;0.394;2023-05-14T12:49:50;4.82;;;4.53;;
17310;SDS011;8773;43.300;0.394;2023-05-14T12:52:18;4.13;;;3.90;;
17310;SDS011;8773;43.300;0.394;2023-05-14T12:55:04;4.78;;;4.57;;
17310;SDS011;8773;43.300;0.394;2023-05-14T12:57:32;4.30;;;4.10;;
17310;SDS011;8773;43.300;0.394;2023-05-14T12:59:59;3.92;;;3.72;;
17310;SDS011;8773;43.300;0.394;2023-05-14T13:02:29;4.47;;;4.18;;
17310;SDS011;8773;43.300;0.394;2023-05-14T13:04:56;3.95;;;3.67;;
17310;SDS011;8773;43.300;0.394;2023-05-14T13:07:23;3.78;;;3.58;;
17310;SDS011;8773;43.300;0.394;2023-05-14T13:09:50;3.65;;;3.45;;
17310;SDS011;8773;43.300;0.394;2023-05-14T13:12:18;4.20;;;3.90;;
17310;SDS011;8773;43.300;0.394;2023-05-14T13:14:45;3.72;;;3.53;;
17310;SDS011;8773;43.300;0.394;2023-05-14T13:17:12;4.20;;;3.90;;
17310;SDS011;8773;43.300;0.394;2023-05-14T13:19:41;3.80;;;3.50;;
17310;SDS011;8773;43.300;0.394;2023-05-14T13:22:09;3.45;;;3.35;;
17310;SDS011;8773;43.300;0.394;2023-05-14T13:24:36;3.42;;;3.33;;
17310;SDS011;8773;43.300;0.394;2023-05-14T13:27:03;3.70;;;3.50;;
17310;SDS011;8773;43.300;0.394;2023-05-14T13:29:31;3.92;;;3.63;;
17310;SDS011;8773;43.300;0.394;2023-05-14T13:31:59;4.18;;;3.90;;
17310;SDS011;8773;43.300;0.394;2023-05-14T13:34:26;4.97;;;4.47;;
17310;SDS011;8773;43.300;0.394;2023-05-14T13:36:55;5.88;;;5.43;;
17310;SDS011;8773;43.300;0.394;2023-05-14T13:39:22;6.53;;;5.97;;
17310;SDS011;8773;43.300;0.394;2023-05-14T13:41:49;7.15;;;6.50;;
17310;SDS011;8773;43.300;0.394;2023-05-14T13:44:17;7.63;;;6.93;;
17310;SDS011;8773;43.300;0.394;2023-05-14T13:46:44;7.35;;;6.78;;
17310;SDS011;8773;43.300;0.394;2023-05-14T13:49:11;7.20;;;6.68;;
17310;SDS011;8773;43.300;0.394;2023-05-14T13:51:39;7.05;;;6.55;;
17310;SDS011;8773;43.300;0.394;2023-05-14T13:54:07;6.93;;;6.25;;
17310;SDS011;8773;43.300;0.394;2023-05-14T13:56:35;6.67;;;6.10;;
17310;SDS011;8773;43.300;0.394;2023-05-14T13:59:02;7.03;;;6.47;;
17310;SDS011;8773;43.300;0.394;2023-05-14T14:01:30;7.00;;;6.50;;
17310;SDS011;8773;43.300;0.394;2023-05-14T14:03:57;7.80;;;7.23;;
17310;SDS011;8773;43.300;0.394;2023-05-14T14:06:25;7.90;;;7.30;;
17310;SDS011;8773;43.300;0.394;2023-05-14T14:08:52;7.27;;;6.87;;
17310;SDS011;8773;43.300;0.394;2023-05-14T14:11:21;8.17;;;7.67;;
17310;SDS011;8773;43.300;0.394;2023-05-14T14:13:48;8.13;;;7.43;;
17310;SDS011;8773;43.300;0.394;2023-05-14T14:16:16;8.73;;;8.13;;
17310;SDS011;8773;43.300;0.394;2023-05-14T14:18:43;8.63;;;7.97;;
17310;SDS011;8773;43.300;0.394;2023-05-14T14:21:11;7.77;;;7.10;;
17310;SDS011;8773;43.300;0.394;2023-05-14T14:23:38;7.73;;;7.23;;
17310;SDS011;8773;43.300;0.394;2023-05-14T14:26:05;6.70;;;6.27;;
17310;SDS011;8773;43.300;0.394;2023-05-14T14:28:34;7.23;;;6.80;;
17310;SDS011;8773;43.300;0.394;2023-05-14T14:31:02;6.20;;;5.90;;
17310;SDS011;8773;43.300;0.394;2023-05-14T14:33:29;5.07;;;4.87;;
17310;SDS011;8773;43.300;0.394;2023-05-14T14:35:56;5.10;;;4.90;;
17310;SDS011;8773;43.300;0.394;2023-05-14T14:38:24;5.73;;;5.40;;
17310;SDS011;8773;43.300;0.394;2023-05-14T14:40:51;5.37;;;5.07;;
17310;SDS011;8773;43.300;0.394;2023-05-14T14:43:19;5.40;;;5.10;;
17310;SDS011;8773;43.300;0.394;2023-05-14T14:45:47;5.93;;;5.53;;
17310;SDS011;8773;43.300;0.394;2023-05-14T14:48:22;4.97;;;4.73;;
17310;SDS011;8773;43.300;0.394;2023-05-14T14:50:53;5.40;;;5.00;;
17310;SDS011;8773;43.300;0.394;2023-05-14T14:53:21;5.40;;;5.10;;
17310;SDS011;8773;43.300;0.394;2023-05-14T14:55:49;5.20;;;4.90;;
17310;SDS011;8773;43.300;0.394;2023-05-14T14:58:17;4.43;;;4.20;;
17310;SDS011;8773;43.300;0.394;2023-05-14T15:00:46;5.03;;;4.80;;
17310;SDS011;8773;43.300;0.394;2023-05-14T15:03:16;6.17;;;5.67;;
17310;SDS011;8773;43.300;0.394;2023-05-14T15:05:43;5.77;;;5.37;;